createdAt,value
2018-12-16T00:00:47.599Z,94741.61
2018-12-16T00:03:13.679Z,94747.09
2018-12-16T00:05:39.648Z,94744.57
2018-12-16T00:08:05.662Z,94750.48
2018-12-16T00:10:31.649Z,94749.47
2018-12-16T00:12:57.657Z,94746.52
2018-12-16T00:15:23.626Z,94753.84
2018-12-16T00:17:49.634Z,94754.20
2018-12-16T00:20:15.635Z,94750.64
2018-12-16T00:22:41.613Z,94750.08
2018-12-16T00:25:07.578Z,94754.98
2018-12-16T00:27:33.567Z,94761.08
2018-12-16T00:29:59.546Z,94763.44
2018-12-16T00:32:25.534Z,94763.44
2018-12-16T00:34:51.523Z,94768.67
2018-12-16T00:37:17.511Z,94765.58
2018-12-16T00:39:43.484Z,94752.96
2018-12-16T00:42:09.483Z,94755.55
2018-12-16T00:44:35.449Z,94754.38
2018-12-16T00:47:01.435Z,94756.31
2018-12-16T00:49:27.445Z,94756.12
2018-12-16T00:51:53.421Z,94759.03
2018-12-16T00:54:19.423Z,94759.84
2018-12-16T00:56:45.425Z,94756.31
2018-12-16T00:59:11.413Z,94760.28
2018-12-16T01:01:37.399Z,94768.30
2018-12-16T01:04:03.386Z,94767.56
2018-12-16T01:06:29.365Z,94758.91
2018-12-16T01:08:55.350Z,94751.38
2018-12-16T01:11:21.376Z,94754.91
2018-12-16T01:13:47.334Z,94759.03
2018-12-16T01:16:13.327Z,94750.37
2018-12-16T01:18:39.308Z,94747.15
2018-12-16T01:21:05.317Z,94752.96
2018-12-16T01:23:31.290Z,94745.14
2018-12-16T01:25:57.292Z,94735.06
2018-12-16T01:28:23.255Z,94728.80
2018-12-16T01:30:49.243Z,94725.44
2018-12-16T01:33:15.207Z,94719.29
2018-12-16T01:35:41.247Z,94727.38
2018-12-16T01:38:07.213Z,94719.09
2018-12-16T01:40:33.199Z,94720.13
2018-12-16T01:42:59.192Z,94717.95
2018-12-16T01:45:25.176Z,94709.36
2018-12-16T01:47:51.180Z,94707.34
2018-12-16T01:50:17.212Z,94701.64
2018-12-16T01:52:49.845Z,94705.19
2018-12-16T01:55:09.209Z,94707.55
2018-12-16T01:57:35.216Z,94699.09
2018-12-16T02:00:01.214Z,94686.67
2018-12-16T02:02:27.182Z,94687.10
2018-12-16T02:04:53.169Z,94688.87
2018-12-16T02:07:19.195Z,94686.67
2018-12-16T02:09:45.166Z,94685.16
2018-12-16T02:12:11.142Z,94693.98
2018-12-16T02:14:37.119Z,94691.00
2018-12-16T02:17:03.132Z,94692.20
2018-12-16T02:19:29.109Z,94691.00
2018-12-16T02:21:55.103Z,94686.80
2018-12-16T02:24:21.070Z,94686.00
2018-12-16T02:26:47.042Z,94689.42
2018-12-16T02:29:13.019Z,94676.66
2018-12-16T02:31:39.000Z,94678.14
2018-12-16T02:34:04.994Z,94677.17
2018-12-16T02:36:30.962Z,94673.30
2018-12-16T02:38:56.966Z,94673.91
2018-12-16T02:41:22.973Z,94674.72
2018-12-16T02:43:48.965Z,94662.61
2018-12-16T02:46:14.925Z,94656.59
2018-12-16T02:48:40.922Z,94655.22
2018-12-16T02:51:06.901Z,94651.09
2018-12-16T02:53:32.898Z,94655.66
2018-12-16T02:55:58.860Z,94661.33
2018-12-16T02:58:24.888Z,94660.35
2018-12-16T03:00:50.831Z,94653.03
2018-12-16T03:03:16.829Z,94654.04
2018-12-16T03:05:42.814Z,94650.82
2018-12-16T03:08:08.831Z,94641.45
2018-12-16T03:10:34.799Z,94641.59
2018-12-16T03:13:00.760Z,94645.72
2018-12-16T03:15:26.733Z,94646.09
2018-12-16T03:17:52.708Z,94638.30
2018-12-16T03:20:18.706Z,94641.97
2018-12-16T03:22:44.673Z,94646.55
2018-12-16T03:25:10.643Z,94645.02
2018-12-16T03:27:36.601Z,94649.11
2018-12-16T03:30:02.627Z,94651.59
2018-12-16T03:32:28.592Z,94653.88
2018-12-16T03:34:54.559Z,94648.56
2018-12-16T03:37:20.565Z,94643.23
2018-12-16T03:39:46.540Z,94647.39
2018-12-16T03:42:12.506Z,94653.67
2018-12-16T03:44:38.495Z,94647.97
2018-12-16T03:47:04.481Z,94655.98
2018-12-16T03:49:30.448Z,94661.33
2018-12-16T03:51:56.426Z,94666.06
2018-12-16T03:54:22.398Z,94668.44
2018-12-16T03:56:48.375Z,94672.60
2018-12-16T03:59:14.372Z,94675.05
2018-12-16T04:01:40.331Z,94673.91
2018-12-16T04:04:06.317Z,94671.80
2018-12-16T04:06:32.301Z,94669.64
2018-12-16T04:08:58.281Z,94674.08
2018-12-16T04:11:24.286Z,94675.92
2018-12-16T04:13:50.256Z,94669.05
2018-12-16T04:16:16.247Z,94680.45
2018-12-16T04:18:42.217Z,94689.48
2018-12-16T04:21:08.179Z,94690.19
2018-12-16T04:23:34.194Z,94690.59
2018-12-16T04:26:00.179Z,94687.94
2018-12-16T04:28:26.167Z,94695.39
2018-12-16T04:30:52.140Z,94695.16
2018-12-16T04:33:18.136Z,94699.25
2018-12-16T04:35:44.136Z,94699.19
2018-12-16T04:38:10.093Z,94705.73
2018-12-16T04:40:36.086Z,94700.50
2018-12-16T04:43:02.055Z,94698.95
2018-12-16T04:45:28.078Z,94698.85
2018-12-16T04:47:54.076Z,94698.18
2018-12-16T04:50:20.065Z,94700.27
2018-12-16T04:52:46.042Z,94712.68
2018-12-16T04:55:12.023Z,94719.70
2018-12-16T04:57:37.998Z,94722.28
2018-12-16T05:00:04.060Z,94717.34
2018-12-16T05:02:30.049Z,94713.22
2018-12-16T05:04:56.006Z,94724.26
2018-12-16T05:07:21.980Z,94719.97
2018-12-16T05:09:47.961Z,94723.05
2018-12-16T05:12:13.941Z,94717.84
2018-12-16T05:14:39.954Z,94715.00
2018-12-16T05:17:05.953Z,94718.02
2018-12-16T05:19:31.914Z,94718.48
2018-12-16T05:21:57.901Z,94721.64
2018-12-16T05:24:23.871Z,94728.42
2018-12-16T05:26:49.853Z,94737.31
2018-12-16T05:29:15.824Z,94744.20
2018-12-16T05:31:41.796Z,94742.02
2018-12-16T05:34:07.822Z,94745.51
2018-12-16T05:36:33.831Z,94745.55
2018-12-16T05:38:59.784Z,94746.81
2018-12-16T05:41:25.770Z,94744.90
2018-12-16T05:43:51.750Z,94749.41
2018-12-16T05:46:17.735Z,94740.20
2018-12-16T05:48:43.738Z,94740.88
2018-12-16T05:51:09.757Z,94736.52
2018-12-16T05:53:35.713Z,94739.20
2018-12-16T05:56:01.702Z,94734.43
2018-12-16T05:58:27.690Z,94738.30
2018-12-16T06:00:53.660Z,94741.48
2018-12-16T06:03:19.656Z,94741.34
2018-12-16T06:05:45.642Z,94733.90
2018-12-16T06:08:11.632Z,94740.38
2018-12-16T06:10:37.607Z,94748.13
2018-12-16T06:13:03.596Z,94741.28
2018-12-16T06:15:29.558Z,94750.72
2018-12-16T06:17:55.545Z,94748.30
2018-12-16T06:20:21.545Z,94748.50
2018-12-16T06:22:47.508Z,94757.03
2018-12-16T06:25:13.489Z,94760.79
2018-12-16T06:27:39.487Z,94769.35
2018-12-16T06:30:05.745Z,94786.10
2018-12-16T06:32:31.722Z,94788.09
2018-12-16T06:34:57.711Z,94787.55
2018-12-16T06:37:23.701Z,94792.22
2018-12-16T06:39:49.680Z,94796.98
2018-12-16T06:42:15.683Z,94804.47
2018-12-16T06:44:41.649Z,94794.97
2018-12-16T06:47:07.739Z,94805.31
2018-12-16T06:49:33.700Z,94809.75
2018-12-16T06:51:59.686Z,94812.50
2018-12-16T06:54:25.661Z,94806.22
2018-12-16T06:56:51.637Z,94800.81
2018-12-16T06:59:17.632Z,94819.55
2018-12-16T07:01:43.593Z,94817.77
2018-12-16T07:04:09.599Z,94810.28
2018-12-16T07:06:35.630Z,94811.05
2018-12-16T07:09:01.629Z,94810.44
2018-12-16T07:11:27.653Z,94806.92
2018-12-16T07:13:53.639Z,94810.44
2018-12-16T07:16:19.627Z,94806.31
2018-12-16T07:18:45.605Z,94813.84
2018-12-16T07:21:11.599Z,94812.80
2018-12-16T07:23:37.595Z,94812.59
2018-12-16T07:26:03.588Z,94819.33
2018-12-16T07:28:29.582Z,94823.59
2018-12-16T07:30:55.573Z,94804.05
2018-12-16T07:33:21.566Z,94812.98
2018-12-16T07:35:47.565Z,94823.38
2018-12-16T07:38:13.517Z,94819.42
2018-12-16T07:40:39.516Z,94823.55
2018-12-16T07:43:05.522Z,94829.50
2018-12-16T07:45:31.518Z,94840.75
2018-12-16T07:47:57.484Z,94852.53
2018-12-16T07:50:23.452Z,94838.20
2018-12-16T07:52:49.452Z,94846.82
2018-12-16T07:55:15.427Z,94851.59
2018-12-16T07:57:41.381Z,94868.07
2018-12-16T08:00:07.408Z,94866.63
2018-12-16T08:02:33.438Z,94879.73
2018-12-16T08:04:59.400Z,94884.35
2018-12-16T08:07:25.366Z,94881.47
2018-12-16T08:09:51.335Z,94885.13
2018-12-16T08:12:17.383Z,94880.83
2018-12-16T08:14:43.370Z,94889.98
2018-12-16T08:17:09.393Z,94886.51
2018-12-16T08:19:35.370Z,94890.27
2018-12-16T08:22:01.352Z,94910.23
2018-12-16T08:24:27.372Z,94919.70
2018-12-16T08:26:53.353Z,94935.56
2018-12-16T08:29:19.340Z,94936.85
2018-12-16T08:31:45.354Z,94930.17
2018-12-16T08:34:11.317Z,94929.98
2018-12-16T08:36:37.307Z,94936.87
2018-12-16T08:39:03.295Z,94946.82
2018-12-16T08:41:29.306Z,94980.00
2018-12-16T08:43:55.273Z,94985.59
2018-12-16T08:46:21.264Z,94978.09
2018-12-16T08:48:47.261Z,95033.88
2018-12-16T08:51:13.222Z,95046.44
2018-12-16T08:53:39.214Z,95021.33
2018-12-16T08:56:05.202Z,95027.47
2018-12-16T08:58:31.191Z,95007.68
2018-12-16T09:00:57.174Z,95000.23
2018-12-16T09:03:23.192Z,94992.79
2018-12-16T09:05:49.243Z,95001.61
2018-12-16T09:08:15.220Z,95000.84
2018-12-16T09:10:41.252Z,94996.34
2018-12-16T09:13:07.230Z,94983.25
2018-12-16T09:15:33.212Z,94996.47
2018-12-16T09:17:59.225Z,94994.16
2018-12-16T09:20:25.181Z,94992.46
2018-12-16T09:22:51.188Z,94992.55
2018-12-16T09:25:17.174Z,95004.77
2018-12-16T09:27:43.196Z,94993.85
2018-12-16T09:30:09.164Z,95002.67
2018-12-16T09:32:35.129Z,94995.44
2018-12-16T09:35:01.174Z,95000.56
2018-12-16T09:37:27.180Z,95014.05
2018-12-16T09:39:53.160Z,95024.56
2018-12-16T09:42:19.128Z,95013.67
2018-12-16T09:44:45.131Z,95033.92
2018-12-16T09:47:11.105Z,95026.09
2018-12-16T09:49:37.102Z,95032.14
2018-12-16T09:52:03.072Z,95039.59
2018-12-16T09:54:29.128Z,95049.05
2018-12-16T09:56:55.052Z,95051.67
2018-12-16T09:59:21.052Z,95059.67
2018-12-16T10:01:47.062Z,95072.96
2018-12-16T10:04:13.085Z,95070.31
2018-12-16T10:06:39.045Z,95077.09
2018-12-16T10:09:05.043Z,95066.89
2018-12-16T10:11:31.003Z,95076.59
2018-12-16T10:13:57.011Z,95077.90
2018-12-16T10:16:22.985Z,95073.94
2018-12-16T10:18:49.006Z,95072.53
2018-12-16T10:21:14.978Z,95055.80
2018-12-16T10:23:40.957Z,95052.97
2018-12-16T10:26:06.946Z,95053.36
2018-12-16T10:28:32.962Z,95049.95
2018-12-16T10:30:58.933Z,95061.22
2018-12-16T10:33:24.932Z,95051.83
2018-12-16T10:35:50.953Z,95060.10
2018-12-16T10:38:16.937Z,95056.86
2018-12-16T10:40:42.902Z,95061.50
2018-12-16T10:43:08.891Z,95066.59
2018-12-16T10:45:34.881Z,95059.41
2018-12-16T10:48:00.848Z,95063.55
2018-12-16T10:50:26.843Z,95058.45
2018-12-16T10:52:52.837Z,95053.77
2018-12-16T10:55:18.819Z,95051.98
2018-12-16T10:57:44.851Z,95056.34
2018-12-16T11:00:10.835Z,95058.86
2018-12-16T11:02:36.815Z,95056.59
2018-12-16T11:05:02.838Z,95051.21
2018-12-16T11:07:28.839Z,95048.74
2018-12-16T11:09:54.833Z,95054.94
2018-12-16T11:12:20.818Z,95058.95
2018-12-16T11:14:46.791Z,95053.35
2018-12-16T11:17:12.800Z,95051.81
2018-12-16T11:19:38.779Z,95058.45
2018-12-16T11:22:04.765Z,95061.52
2018-12-16T11:24:30.832Z,95055.45
2018-12-16T11:26:56.819Z,95063.95
2018-12-16T11:29:22.816Z,95057.94
2018-12-16T11:31:48.812Z,95057.94
2018-12-16T11:34:14.781Z,95055.49
2018-12-16T11:36:40.770Z,95061.09
2018-12-16T11:39:06.822Z,95061.81
2018-12-16T11:41:33.024Z,95070.27
2018-12-16T11:43:59.002Z,95062.50
2018-12-16T11:46:25.035Z,95065.91
2018-12-16T11:48:51.025Z,95063.29
2018-12-16T11:51:17.006Z,95068.39
2018-12-16T11:53:42.994Z,95064.98
2018-12-16T11:56:08.993Z,95071.33
2018-12-16T11:58:34.977Z,95074.61
2018-12-16T12:01:00.959Z,95076.63
2018-12-16T12:03:26.998Z,95072.67
2018-12-16T12:05:53.010Z,95066.55
2018-12-16T12:08:18.994Z,95071.45
2018-12-16T12:10:44.991Z,95078.83
2018-12-16T12:13:11.009Z,95076.84
2018-12-16T12:15:36.959Z,95083.83
2018-12-16T12:18:03.008Z,95083.91
2018-12-16T12:20:30.215Z,95081.80
2018-12-16T12:22:56.195Z,95073.95
2018-12-16T12:25:22.169Z,95087.94
2018-12-16T12:27:48.180Z,95092.70
2018-12-16T12:30:14.151Z,95080.11
2018-12-16T12:32:40.146Z,95076.70
2018-12-16T12:35:06.119Z,95082.70
2018-12-16T12:37:32.104Z,95092.13
2018-12-16T12:39:58.475Z,95102.48
2018-12-16T12:42:24.468Z,95100.45
2018-12-16T12:44:50.498Z,95108.51
2018-12-16T12:47:16.479Z,95104.33
2018-12-16T12:49:45.133Z,95110.61
2018-12-16T12:52:08.445Z,95110.69
2018-12-16T12:54:34.429Z,95106.77
2018-12-16T12:57:00.430Z,95115.13
2018-12-16T12:59:26.434Z,95127.87
2018-12-16T13:01:52.427Z,95119.82
2018-12-16T13:04:18.500Z,95117.56
2018-12-16T13:06:44.494Z,95128.17
2018-12-16T13:09:10.492Z,95125.28
2018-12-16T13:11:36.507Z,95123.45
2018-12-16T13:14:02.499Z,95124.26
2018-12-16T13:16:28.499Z,95123.91
2018-12-16T13:18:54.477Z,95127.05
2018-12-16T13:21:20.451Z,95124.62
2018-12-16T13:23:46.440Z,95123.60
2018-12-16T13:26:12.414Z,95127.32
2018-12-16T13:28:38.397Z,95130.88
2018-12-16T13:31:04.371Z,95125.33
2018-12-16T13:33:30.346Z,95120.84
2018-12-16T13:35:56.324Z,95125.95
2018-12-16T13:38:22.293Z,95127.12
2018-12-16T13:40:48.282Z,95132.06
2018-12-16T13:43:14.269Z,95133.44
2018-12-16T13:45:40.239Z,95140.89
2018-12-16T13:48:06.212Z,95147.25
2018-12-16T13:50:32.187Z,95154.11
2018-12-16T13:52:58.177Z,95150.00
2018-12-16T13:55:24.163Z,95143.05
2018-12-16T13:57:50.132Z,95146.67
2018-12-16T14:00:16.140Z,95147.20
2018-12-16T14:02:42.143Z,95152.09
2018-12-16T14:05:08.113Z,95142.01
2018-12-16T14:07:34.134Z,95155.04
2018-12-16T14:10:00.134Z,95161.97
2018-12-16T14:12:26.084Z,95159.05
2018-12-16T14:14:52.072Z,95158.12
2018-12-16T14:17:18.075Z,95155.66
2018-12-16T14:19:44.048Z,95172.53
2018-12-16T14:22:10.013Z,95169.05
2018-12-16T14:24:36.014Z,95174.70
2018-12-16T14:27:01.994Z,95169.16
2018-12-16T14:29:27.998Z,95163.70
2018-12-16T14:31:53.977Z,95165.41
2018-12-16T14:34:19.966Z,95164.67
2018-12-16T14:36:45.952Z,95170.89
2018-12-16T14:39:11.959Z,95162.84
2018-12-16T14:41:37.976Z,95161.86
2018-12-16T14:44:04.031Z,95181.90
2018-12-16T14:46:29.928Z,95184.08
2018-12-16T14:48:55.896Z,95179.55
2018-12-16T14:51:21.897Z,95180.07
2018-12-16T14:53:50.863Z,95181.61
2018-12-16T14:56:16.846Z,95182.61
2018-12-16T14:58:42.828Z,95190.23
2018-12-16T15:01:08.850Z,95197.88
2018-12-16T15:03:34.841Z,95200.05
2018-12-16T15:06:00.868Z,95198.44
2018-12-16T15:08:26.840Z,95195.48
2018-12-16T15:10:52.811Z,95198.77
2018-12-16T15:13:18.828Z,95201.95
2018-12-16T15:15:44.833Z,95199.33
2018-12-16T15:18:10.817Z,95201.88
2018-12-16T15:20:36.821Z,95208.92
2018-12-16T15:23:02.808Z,95207.33
2018-12-16T15:25:28.792Z,95204.37
2018-12-16T15:27:54.806Z,95206.87
2018-12-16T15:30:20.770Z,95211.58
2018-12-16T15:32:46.753Z,95218.91
2018-12-16T15:35:12.730Z,95216.56
2018-12-16T15:37:38.721Z,95221.66
2018-12-16T15:40:06.302Z,95225.22
2018-12-16T15:42:30.676Z,95239.80
2018-12-16T15:44:56.659Z,95238.02
2018-12-16T15:47:22.634Z,95232.51
2018-12-16T15:49:48.623Z,95237.49
2018-12-16T15:52:14.618Z,95225.84
2018-12-16T15:54:40.599Z,95230.20
2018-12-16T15:57:06.575Z,95242.81
2018-12-16T15:59:32.581Z,95253.36
2018-12-16T16:01:58.564Z,95238.47
2018-12-16T16:04:24.548Z,95238.88
2018-12-16T16:06:50.574Z,95233.82
2018-12-16T16:09:16.578Z,95244.10
2018-12-16T16:11:42.552Z,95251.24
2018-12-16T16:14:08.551Z,95262.26
2018-12-16T16:16:34.554Z,95258.89
2018-12-16T16:19:00.544Z,95256.13
2018-12-16T16:21:26.519Z,95256.99
2018-12-16T16:23:52.558Z,95255.98
2018-12-16T16:26:18.521Z,95267.08
2018-12-16T16:28:44.495Z,95268.78
2018-12-16T16:31:10.464Z,95259.39
2018-12-16T16:33:36.479Z,95260.52
2018-12-16T16:36:02.474Z,95223.20
2018-12-16T16:38:28.460Z,95254.05
2018-12-16T16:40:54.444Z,95250.94
2018-12-16T16:43:20.426Z,95255.26
2018-12-16T16:45:46.398Z,95249.75
2018-12-16T16:48:12.428Z,95265.41
2018-12-16T16:50:38.431Z,95256.18
2018-12-16T16:53:04.460Z,95257.37
2018-12-16T16:55:30.464Z,95270.11
2018-12-16T16:57:56.460Z,95268.57
2018-12-16T17:00:22.458Z,95279.17
2018-12-16T17:02:48.467Z,95272.13
2018-12-16T17:05:14.437Z,95276.64
2018-12-16T17:07:40.519Z,95283.87
2018-12-16T17:10:06.509Z,95279.12
2018-12-16T17:12:32.489Z,95280.91
2018-12-16T17:14:58.482Z,95270.47
2018-12-16T17:17:24.502Z,95270.82
2018-12-16T17:19:50.484Z,95281.21
2018-12-16T17:22:16.493Z,95271.98
2018-12-16T17:24:42.477Z,95287.28
2018-12-16T17:27:08.490Z,95311.63
2018-12-16T17:29:34.464Z,95315.55
2018-12-16T17:32:00.452Z,95325.74
2018-12-16T17:34:26.419Z,95313.47
2018-12-16T17:36:52.408Z,95305.00
2018-12-16T17:39:18.393Z,95295.72
2018-12-16T17:41:44.400Z,95298.06
2018-12-16T17:44:10.367Z,95303.97
2018-12-16T17:46:36.363Z,95298.33
2018-12-16T17:49:02.423Z,95301.67
2018-12-16T17:51:28.421Z,95291.13
2018-12-16T17:53:54.401Z,95298.37
2018-12-16T17:56:20.511Z,95303.56
2018-12-16T17:58:46.593Z,95310.81
2018-12-16T18:01:12.821Z,95302.13
2018-12-16T18:03:38.810Z,95303.31
2018-12-16T18:06:04.777Z,95303.16
2018-12-16T18:08:30.760Z,95306.55
2018-12-16T18:10:56.808Z,95312.06
2018-12-16T18:13:22.775Z,95304.21
2018-12-16T18:15:48.768Z,95307.09
2018-12-16T18:18:14.743Z,95306.69
2018-12-16T18:20:40.733Z,95309.06
2018-12-16T18:23:06.707Z,95311.22
2018-12-16T18:25:32.692Z,95323.20
2018-12-16T18:27:58.690Z,95314.33
2018-12-16T18:30:24.661Z,95317.89
2018-12-16T18:32:50.783Z,95311.81
2018-12-16T18:35:16.750Z,95306.31
2018-12-16T18:37:42.764Z,95311.91
2018-12-16T18:40:08.759Z,95318.19
2018-12-16T18:42:34.733Z,95319.56
2018-12-16T18:45:00.735Z,95315.48
2018-12-16T18:47:26.777Z,95317.00
2018-12-16T18:49:52.778Z,95314.37
2018-12-16T18:52:18.758Z,95323.20
2018-12-16T18:54:44.750Z,95315.75
2018-12-16T18:57:10.745Z,95317.89
2018-12-16T18:59:36.719Z,95323.74
2018-12-16T19:02:02.724Z,95317.00
2018-12-16T19:04:28.682Z,95323.61
2018-12-16T19:06:54.654Z,95324.53
2018-12-16T19:09:20.632Z,95332.17
2018-12-16T19:11:46.683Z,95331.95
2018-12-16T19:14:12.682Z,95328.96
2018-12-16T19:16:38.654Z,95324.21
2018-12-16T19:19:04.631Z,95319.27
2018-12-16T19:21:30.622Z,95323.40
2018-12-16T19:23:56.602Z,95316.71
2018-12-16T19:26:22.608Z,95308.86
2018-12-16T19:28:48.610Z,95306.84
2018-12-16T19:31:14.598Z,95304.03
2018-12-16T19:33:40.693Z,95296.34
2018-12-16T19:36:06.702Z,95302.20
2018-12-16T19:38:32.673Z,95303.41
2018-12-16T19:40:58.681Z,95295.77
2018-12-16T19:43:24.666Z,95295.42
2018-12-16T19:45:50.635Z,95300.00
2018-12-16T19:48:16.621Z,95302.36
2018-12-16T19:50:42.602Z,95303.56
2018-12-16T19:53:08.583Z,95301.43
2018-12-16T19:55:34.576Z,95301.27
2018-12-16T19:58:00.546Z,95304.84
2018-12-16T20:00:26.544Z,95294.95
2018-12-16T20:02:52.521Z,95301.84
2018-12-16T20:05:18.524Z,95305.40
2018-12-16T20:07:44.506Z,95307.59
2018-12-16T20:10:10.492Z,95307.39
2018-12-16T20:12:36.524Z,95303.27
2018-12-16T20:15:02.472Z,95310.71
2018-12-16T20:17:28.725Z,95301.08
2018-12-16T20:19:54.702Z,95297.36
2018-12-16T20:22:20.762Z,95292.25
2018-12-16T20:24:46.760Z,95292.45
2018-12-16T20:27:12.733Z,95294.80
2018-12-16T20:29:38.715Z,95302.30
2018-12-16T20:32:04.708Z,95292.66
2018-12-16T20:34:30.809Z,95307.23
2018-12-16T20:36:56.812Z,95298.78
2018-12-16T20:39:22.943Z,95301.73
2018-12-16T20:41:48.969Z,95302.86
2018-12-16T20:44:14.970Z,95309.17
2018-12-16T20:46:40.972Z,95299.54
2018-12-16T20:49:07.046Z,95309.17
2018-12-16T20:51:33.034Z,95305.61
2018-12-16T20:53:59.012Z,95307.96
2018-12-16T20:56:24.991Z,95306.99
2018-12-16T20:58:50.983Z,95299.70
2018-12-16T21:01:17.016Z,95303.83
2018-12-16T21:03:42.995Z,95306.42
2018-12-16T21:06:08.964Z,95302.70
2018-12-16T21:08:34.974Z,95298.98
2018-12-16T21:11:00.944Z,95304.69
2018-12-16T21:13:26.929Z,95304.23
2018-12-16T21:15:52.916Z,95308.67
2018-12-16T21:18:18.909Z,95302.55
2018-12-16T21:20:45.223Z,95303.11
2018-12-16T21:23:11.165Z,95298.98
2018-12-16T21:25:37.145Z,95311.89
2018-12-16T21:28:03.130Z,95309.33
2018-12-16T21:30:29.115Z,95303.58
2018-12-16T21:32:55.106Z,95293.89
2018-12-16T21:35:21.081Z,95283.29
2018-12-16T21:37:47.088Z,95291.33
2018-12-16T21:40:13.077Z,95275.95
2018-12-16T21:42:39.065Z,95261.41
2018-12-16T21:45:05.032Z,95265.19
2018-12-16T21:47:31.034Z,95262.84
2018-12-16T21:49:57.008Z,95272.84
2018-12-16T21:52:22.983Z,95276.60
2018-12-16T21:54:48.975Z,95279.92
2018-12-16T21:57:14.965Z,95287.36
2018-12-16T21:59:40.951Z,95283.08
2018-12-16T22:02:06.954Z,95274.17
2018-12-16T22:04:32.948Z,95277.16
2018-12-16T22:06:58.936Z,95274.17
2018-12-16T22:09:24.899Z,95275.55
2018-12-16T22:11:50.920Z,95269.67
2018-12-16T22:14:16.892Z,95262.39
2018-12-16T22:16:42.869Z,95261.02
2018-12-16T22:19:08.867Z,95271.83
2018-12-16T22:21:34.852Z,95273.15
2018-12-16T22:24:00.833Z,95270.59
2018-12-16T22:26:26.802Z,95280.44
2018-12-16T22:28:52.773Z,95281.19
2018-12-16T22:31:18.772Z,95280.63
2018-12-16T22:33:44.757Z,95279.98
2018-12-16T22:36:10.775Z,95280.22
2018-12-16T22:38:36.745Z,95276.82
2018-12-16T22:41:02.731Z,95277.06
2018-12-16T22:43:28.754Z,95281.76
2018-12-16T22:45:54.723Z,95281.14
2018-12-16T22:48:20.718Z,95273.05
2018-12-16T22:50:46.684Z,95271.51
2018-12-16T22:53:12.674Z,95270.89
2018-12-16T22:55:38.632Z,95277.17
2018-12-16T22:58:04.627Z,95276.39
2018-12-16T23:00:30.606Z,95266.36
2018-12-16T23:02:56.580Z,95277.77
2018-12-16T23:05:22.561Z,95276.39
2018-12-16T23:07:48.543Z,95271.22
2018-12-16T23:10:14.566Z,95268.09
2018-12-16T23:12:40.562Z,95262.96
2018-12-16T23:15:06.528Z,95261.83
2018-12-16T23:17:32.518Z,95263.36
2018-12-16T23:19:58.509Z,95262.59
2018-12-16T23:22:24.477Z,95255.30
2018-12-16T23:24:50.480Z,95256.67
2018-12-16T23:27:16.460Z,95260.61
2018-12-16T23:29:42.441Z,95258.45
2018-12-16T23:32:08.407Z,95261.38
2018-12-16T23:34:34.401Z,95269.22
2018-12-16T23:37:00.381Z,95269.84
2018-12-16T23:39:26.384Z,95262.59
2018-12-16T23:41:52.346Z,95269.22
2018-12-16T23:44:18.340Z,95262.75
2018-12-16T23:46:44.337Z,95261.98
2018-12-16T23:49:10.328Z,95264.12
2018-12-16T23:51:36.296Z,95263.72
2018-12-16T23:54:02.304Z,95256.62
2018-12-16T23:56:28.286Z,95259.43
2018-12-16T23:58:54.250Z,95253.12
